sensor_id;sensor_type;location;lat;lon;timestamp;pressure;altitude;pressure_sealevel;temperature
45034;BMP280;30771;47.988;-4.186;2022-09-23T06:02:47;100543.22;;;14.76
45034;BMP280;30771;47.988;-4.186;2022-09-23T06:05:13;100548.88;;;14.80
45034;BMP280;30771;47.988;-4.186;2022-09-23T06:07:38;100551.53;;;14.80
45034;BMP280;30771;47.988;-4.186;2022-09-23T06:10:04;100553.94;;;14.81
45034;BMP280;30771;47.988;-4.186;2022-09-23T06:12:29;100539.50;;;14.77
45034;BMP280;30771;47.988;-4.186;2022-09-23T06:14:54;100544.22;;;14.75
45034;BMP280;30771;47.988;-4.186;2022-09-23T06:17:20;100559.13;;;14.76
45034;BMP280;30771;47.988;-4.186;2022-09-23T06:19:45;100565.19;;;14.77
45034;BMP280;30771;47.988;-4.186;2022-09-23T06:22:10;100572.56;;;14.75
45034;BMP280;30771;47.988;-4.186;2022-09-23T06:24:35;100566.59;;;14.68
45034;BMP280;30771;47.988;-4.186;2022-09-23T06:27:01;100574.28;;;14.69
45034;BMP280;30771;47.988;-4.186;2022-09-23T06:29:26;100583.03;;;14.70
45034;BMP280;30771;47.988;-4.186;2022-09-23T06:31:51;100585.38;;;14.66
45034;BMP280;30771;47.988;-4.186;2022-09-23T06:34:16;100591.25;;;14.68
45034;BMP280;30771;47.988;-4.186;2022-09-23T06:36:42;100582.47;;;14.68
45034;BMP280;30771;47.988;-4.186;2022-09-23T06:39:07;100590.78;;;14.71
45034;BMP280;30771;47.988;-4.186;2022-09-23T06:41:33;100595.63;;;14.74
45034;BMP280;30771;47.988;-4.186;2022-09-23T06:43:58;100591.94;;;14.75
45034;BMP280;30771;47.988;-4.186;2022-09-23T06:46:23;100587.47;;;14.76
45034;BMP280;30771;47.988;-4.186;2022-09-23T06:48:49;100585.50;;;14.71
45034;BMP280;30771;47.988;-4.186;2022-09-23T06:51:14;100582.03;;;14.71
45034;BMP280;30771;47.988;-4.186;2022-09-23T06:53:39;100574.41;;;14.63
45034;BMP280;30771;47.988;-4.186;2022-09-23T06:56:06;100580.50;;;14.63
45034;BMP280;30771;47.988;-4.186;2022-09-23T06:58:34;100585.56;;;14.65
45034;BMP280;30771;47.988;-4.186;2022-09-23T07:01:20;100583.72;;;14.65
45034;BMP280;30771;47.988;-4.186;2022-09-23T07:03:45;100573.72;;;14.67
45034;BMP280;30771;47.988;-4.186;2022-09-23T07:06:11;100563.47;;;14.71
45034;BMP280;30771;47.988;-4.186;2022-09-23T07:08:36;100562.22;;;14.73
45034;BMP280;30771;47.988;-4.186;2022-09-23T07:11:04;100570.88;;;14.80
45034;BMP280;30771;47.988;-4.186;2022-09-23T07:13:30;100565.94;;;14.84
45034;BMP280;30771;47.988;-4.186;2022-09-23T07:15:56;100564.63;;;14.86
45034;BMP280;30771;47.988;-4.186;2022-09-23T07:18:23;100565.25;;;14.88
45034;BMP280;30771;47.988;-4.186;2022-09-23T07:20:49;100564.78;;;14.91
45034;BMP280;30771;47.988;-4.186;2022-09-23T07:23:14;100561.69;;;14.94
45034;BMP280;30771;47.988;-4.186;2022-09-23T07:25:40;100563.31;;;14.95
45034;BMP280;30771;47.988;-4.186;2022-09-23T07:28:05;100550.25;;;14.94
45034;BMP280;30771;47.988;-4.186;2022-09-23T07:30:34;100553.53;;;14.96
45034;BMP280;30771;47.988;-4.186;2022-09-23T07:32:59;100561.38;;;15.02
45034;BMP280;30771;47.988;-4.186;2022-09-23T07:35:25;100558.72;;;15.02
45034;BMP280;30771;47.988;-4.186;2022-09-23T07:37:50;100547.41;;;14.95
45034;BMP280;30771;47.988;-4.186;2022-09-23T07:40:15;100570.69;;;15.05
45034;BMP280;30771;47.988;-4.186;2022-09-23T07:42:40;100576.69;;;15.00
45034;BMP280;30771;47.988;-4.186;2022-09-23T07:45:07;100573.59;;;15.03
45034;BMP280;30771;47.988;-4.186;2022-09-23T07:47:33;100577.97;;;15.09
45034;BMP280;30771;47.988;-4.186;2022-09-23T07:49:58;100574.66;;;15.14
45034;BMP280;30771;47.988;-4.186;2022-09-23T07:52:23;100577.66;;;15.17
45034;BMP280;30771;47.988;-4.186;2022-09-23T07:54:48;100580.19;;;15.24
45034;BMP280;30771;47.988;-4.186;2022-09-23T07:57:14;100585.22;;;15.25
45034;BMP280;30771;47.988;-4.186;2022-09-23T07:59:39;100576.03;;;15.28
45034;BMP280;30771;47.988;-4.186;2022-09-23T08:02:05;100589.09;;;15.29
45034;BMP280;30771;47.988;-4.186;2022-09-23T08:04:30;100590.47;;;15.32
45034;BMP280;30771;47.988;-4.186;2022-09-23T08:06:58;100574.88;;;15.35
45034;BMP280;30771;47.988;-4.186;2022-09-23T08:09:26;100581.81;;;15.36
45034;BMP280;30771;47.988;-4.186;2022-09-23T08:11:53;100585.16;;;15.43
45034;BMP280;30771;47.988;-4.186;2022-09-23T08:14:18;100582.38;;;15.50
45034;BMP280;30771;47.988;-4.186;2022-09-23T08:16:44;100593.34;;;15.53
45034;BMP280;30771;47.988;-4.186;2022-09-23T08:19:11;100580.31;;;15.64
45034;BMP280;30771;47.988;-4.186;2022-09-23T08:21:37;100578.00;;;15.67
45034;BMP280;30771;47.988;-4.186;2022-09-23T08:24:02;100584.13;;;15.68
45034;BMP280;30771;47.988;-4.186;2022-09-23T08:26:27;100583.75;;;15.76
45034;BMP280;30771;47.988;-4.186;2022-09-23T08:28:53;100579.81;;;15.90
45034;BMP280;30771;47.988;-4.186;2022-09-23T08:31:19;100578.19;;;16.00
45034;BMP280;30771;47.988;-4.186;2022-09-23T08:33:44;100589.13;;;16.15
45034;BMP280;30771;47.988;-4.186;2022-09-23T08:36:10;100595.09;;;16.22
45034;BMP280;30771;47.988;-4.186;2022-09-23T08:38:35;100596.78;;;16.28
45034;BMP280;30771;47.988;-4.186;2022-09-23T08:44:05;100599.81;;;16.32
45034;BMP280;30771;47.988;-4.186;2022-09-23T08:46:46;100607.22;;;16.30
45034;BMP280;30771;47.988;-4.186;2022-09-23T08:49:18;100605.22;;;16.37
45034;BMP280;30771;47.988;-4.186;2022-09-23T08:51:47;100606.50;;;16.34
45034;BMP280;30771;47.988;-4.186;2022-09-23T08:54:13;100601.91;;;16.30
45034;BMP280;30771;47.988;-4.186;2022-09-23T08:56:41;100597.50;;;16.24
45034;BMP280;30771;47.988;-4.186;2022-09-23T08:59:16;100594.63;;;16.25
45034;BMP280;30771;47.988;-4.186;2022-09-23T09:01:44;100591.41;;;16.23
45034;BMP280;30771;47.988;-4.186;2022-09-23T09:04:21;100602.63;;;16.25
45034;BMP280;30771;47.988;-4.186;2022-09-23T09:10:05;100596.25;;;16.26
45034;BMP280;30771;47.988;-4.186;2022-09-23T09:12:12;100597.41;;;16.30
45034;BMP280;30771;47.988;-4.186;2022-09-23T09:15:08;100599.19;;;16.41
45034;BMP280;30771;47.988;-4.186;2022-09-23T09:25:40;100613.22;;;16.81
45034;BMP280;30771;47.988;-4.186;2022-09-23T09:28:23;100608.00;;;16.86
45034;BMP280;30771;47.988;-4.186;2022-09-23T09:30:55;100618.50;;;16.93
45034;BMP280;30771;47.988;-4.186;2022-09-23T09:33:27;100608.56;;;17.05
45034;BMP280;30771;47.988;-4.186;2022-09-23T09:36:05;100602.88;;;17.13
45034;BMP280;30771;47.988;-4.186;2022-09-23T09:38:33;100614.78;;;17.27
45034;BMP280;30771;47.988;-4.186;2022-09-23T09:41:00;100615.31;;;17.29
45034;BMP280;30771;47.988;-4.186;2022-09-23T09:43:29;100622.28;;;17.30
45034;BMP280;30771;47.988;-4.186;2022-09-23T09:46:50;100617.53;;;17.32
45034;BMP280;30771;47.988;-4.186;2022-09-23T09:49:28;100619.28;;;17.27
45034;BMP280;30771;47.988;-4.186;2022-09-23T09:52:11;100622.78;;;17.27
45034;BMP280;30771;47.988;-4.186;2022-09-23T09:54:37;100605.59;;;17.18
45034;BMP280;30771;47.988;-4.186;2022-09-23T09:57:03;100614.06;;;17.15
45034;BMP280;30771;47.988;-4.186;2022-09-23T09:59:31;100613.81;;;17.17
45034;BMP280;30771;47.988;-4.186;2022-09-23T10:04:44;100609.47;;;17.27
45034;BMP280;30771;47.988;-4.186;2022-09-23T10:07:14;100603.72;;;17.35
45034;BMP280;30771;47.988;-4.186;2022-09-23T10:09:47;100604.66;;;17.46
45034;BMP280;30771;47.988;-4.186;2022-09-23T10:14:40;100603.19;;;17.71
45034;BMP280;30771;47.988;-4.186;2022-09-23T10:17:07;100608.69;;;17.86
45034;BMP280;30771;47.988;-4.186;2022-09-23T10:19:37;100597.84;;;17.93
45034;BMP280;30771;47.988;-4.186;2022-09-23T10:22:20;100594.38;;;17.92
45034;BMP280;30771;47.988;-4.186;2022-09-23T10:24:49;100599.53;;;17.99
45034;BMP280;30771;47.988;-4.186;2022-09-23T10:27:15;100593.19;;;18.05
45034;BMP280;30771;47.988;-4.186;2022-09-23T10:29:49;100595.56;;;18.01
45034;BMP280;30771;47.988;-4.186;2022-09-23T10:34:44;100596.66;;;18.05
45034;BMP280;30771;47.988;-4.186;2022-09-23T10:37:16;100584.59;;;17.98
45034;BMP280;30771;47.988;-4.186;2022-09-23T10:39:42;100586.75;;;18.01
45034;BMP280;30771;47.988;-4.186;2022-09-23T10:47:34;100585.09;;;18.16
45034;BMP280;30771;47.988;-4.186;2022-09-23T10:52:42;100596.66;;;18.27
45034;BMP280;30771;47.988;-4.186;2022-09-23T11:00:42;100591.31;;;18.27
45034;BMP280;30771;47.988;-4.186;2022-09-23T11:03:38;100592.53;;;18.19
45034;BMP280;30771;47.988;-4.186;2022-09-23T11:09:10;100587.38;;;18.08
45034;BMP280;30771;47.988;-4.186;2022-09-23T11:12:08;100579.97;;;18.15
45034;BMP280;30771;47.988;-4.186;2022-09-23T11:25:37;100560.91;;;18.23
45034;BMP280;30771;47.988;-4.186;2022-09-23T11:36:07;100560.09;;;18.22
45034;BMP280;30771;47.988;-4.186;2022-09-23T11:38:40;100561.59;;;18.13
45034;BMP280;30771;47.988;-4.186;2022-09-23T11:41:15;100553.25;;;18.10
45034;BMP280;30771;47.988;-4.186;2022-09-23T11:43:43;100556.28;;;18.13
45034;BMP280;30771;47.988;-4.186;2022-09-23T11:46:26;100553.88;;;18.17
45034;BMP280;30771;47.988;-4.186;2022-09-23T11:49:14;100549.25;;;18.07
45034;BMP280;30771;47.988;-4.186;2022-09-23T11:57:09;100552.56;;;17.93
45034;BMP280;30771;47.988;-4.186;2022-09-23T11:59:49;100542.66;;;17.88
45034;BMP280;30771;47.988;-4.186;2022-09-23T12:02:53;100545.25;;;17.83
45034;BMP280;30771;47.988;-4.186;2022-09-23T12:05:25;100541.41;;;17.74
45034;BMP280;30771;47.988;-4.186;2022-09-23T12:07:56;100538.44;;;17.71
45034;BMP280;30771;47.988;-4.186;2022-09-23T12:10:35;100530.69;;;17.69
45034;BMP280;30771;47.988;-4.186;2022-09-23T12:13:09;100535.47;;;17.67
45034;BMP280;30771;47.988;-4.186;2022-09-23T12:18:53;100528.44;;;17.83
45034;BMP280;30771;47.988;-4.186;2022-09-23T12:21:37;100529.88;;;17.90
45034;BMP280;30771;47.988;-4.186;2022-09-23T12:24:43;100529.44;;;17.98
45034;BMP280;30771;47.988;-4.186;2022-09-23T12:27:17;100527.25;;;17.95
45034;BMP280;30771;47.988;-4.186;2022-09-23T12:29:43;100519.59;;;17.99
45034;BMP280;30771;47.988;-4.186;2022-09-23T12:32:16;100513.00;;;18.06
45034;BMP280;30771;47.988;-4.186;2022-09-23T12:34:45;100503.13;;;18.07
45034;BMP280;30771;47.988;-4.186;2022-09-23T12:37:11;100512.25;;;18.11
45034;BMP280;30771;47.988;-4.186;2022-09-23T12:39:38;100516.66;;;18.00
45034;BMP280;30771;47.988;-4.186;2022-09-23T12:42:09;100516.31;;;17.92
45034;BMP280;30771;47.988;-4.186;2022-09-23T12:44:39;100498.34;;;17.82
45034;BMP280;30771;47.988;-4.186;2022-09-23T12:49:40;100494.28;;;17.75
45034;BMP280;30771;47.988;-4.186;2022-09-23T12:54:35;100504.28;;;17.68
45034;BMP280;30771;47.988;-4.186;2022-09-23T12:57:01;100508.25;;;17.60
45034;BMP280;30771;47.988;-4.186;2022-09-23T12:59:29;100499.13;;;17.56
45034;BMP280;30771;47.988;-4.186;2022-09-23T13:01:55;100502.78;;;17.50
45034;BMP280;30771;47.988;-4.186;2022-09-23T13:04:33;100498.75;;;17.48
45034;BMP280;30771;47.988;-4.186;2022-09-23T13:07:07;100496.78;;;17.43
45034;BMP280;30771;47.988;-4.186;2022-09-23T13:09:40;100489.31;;;17.40
45034;BMP280;30771;47.988;-4.186;2022-09-23T13:12:36;100489.63;;;17.44
45034;BMP280;30771;47.988;-4.186;2022-09-23T13:15:04;100474.75;;;17.43
45034;BMP280;30771;47.988;-4.186;2022-09-23T13:17:37;100471.78;;;17.44
45034;BMP280;30771;47.988;-4.186;2022-09-23T13:20:33;100476.44;;;17.54
45034;BMP280;30771;47.988;-4.186;2022-09-23T13:23:25;100474.06;;;17.52
45034;BMP280;30771;47.988;-4.186;2022-09-23T13:25:51;100477.69;;;17.46
45034;BMP280;30771;47.988;-4.186;2022-09-23T13:28:30;100478.16;;;17.43
45034;BMP280;30771;47.988;-4.186;2022-09-23T13:30:57;100483.19;;;17.40
45034;BMP280;30771;47.988;-4.186;2022-09-23T13:35:54;100467.16;;;17.35
45034;BMP280;30771;47.988;-4.186;2022-09-23T13:38:22;100460.28;;;17.39
45034;BMP280;30771;47.988;-4.186;2022-09-23T13:40:48;100473.91;;;17.42
45034;BMP280;30771;47.988;-4.186;2022-09-23T13:43:27;100474.09;;;17.36
45034;BMP280;30771;47.988;-4.186;2022-09-23T13:45:53;100470.69;;;17.40
45034;BMP280;30771;47.988;-4.186;2022-09-23T13:48:20;100469.28;;;17.33
45034;BMP280;30771;47.988;-4.186;2022-09-23T13:50:49;100481.78;;;17.32
45034;BMP280;30771;47.988;-4.186;2022-09-23T13:53:27;100470.63;;;17.35
45034;BMP280;30771;47.988;-4.186;2022-09-23T13:58:31;100466.19;;;17.41
45034;BMP280;30771;47.988;-4.186;2022-09-23T14:00:57;100470.97;;;17.44
45034;BMP280;30771;47.988;-4.186;2022-09-23T14:05:52;100461.84;;;17.56
45034;BMP280;30771;47.988;-4.186;2022-09-23T14:08:19;100465.84;;;17.59
45034;BMP280;30771;47.988;-4.186;2022-09-23T14:10:45;100469.31;;;17.59
45034;BMP280;30771;47.988;-4.186;2022-09-23T14:13:21;100474.06;;;17.52
45034;BMP280;30771;47.988;-4.186;2022-09-23T14:15:47;100469.81;;;17.56
45034;BMP280;30771;47.988;-4.186;2022-09-23T14:18:37;100471.16;;;17.59
45034;BMP280;30771;47.988;-4.186;2022-09-23T14:21:03;100474.41;;;17.61
45034;BMP280;30771;47.988;-4.186;2022-09-23T14:23:29;100463.00;;;17.65
45034;BMP280;30771;47.988;-4.186;2022-09-23T14:25:54;100462.78;;;17.67
45034;BMP280;30771;47.988;-4.186;2022-09-23T14:28:21;100460.94;;;17.72
45034;BMP280;30771;47.988;-4.186;2022-09-23T14:30:50;100459.44;;;17.81
45034;BMP280;30771;47.988;-4.186;2022-09-23T14:33:18;100471.69;;;17.82
45034;BMP280;30771;47.988;-4.186;2022-09-23T14:35:50;100471.91;;;17.76
45034;BMP280;30771;47.988;-4.186;2022-09-23T14:38:25;100464.25;;;17.79
45034;BMP280;30771;47.988;-4.186;2022-09-23T14:40:53;100470.16;;;17.86
45034;BMP280;30771;47.988;-4.186;2022-09-23T14:43:26;100470.91;;;17.82
45034;BMP280;30771;47.988;-4.186;2022-09-23T14:45:54;100475.72;;;17.85
45034;BMP280;30771;47.988;-4.186;2022-09-23T14:48:25;100467.13;;;17.78
45034;BMP280;30771;47.988;-4.186;2022-09-23T14:50:57;100472.16;;;17.74
45034;BMP280;30771;47.988;-4.186;2022-09-23T14:53:32;100473.50;;;17.77
45034;BMP280;30771;47.988;-4.186;2022-09-23T14:58:56;100463.22;;;17.85
45034;BMP280;30771;47.988;-4.186;2022-09-23T15:01:32;100467.53;;;17.91
45034;BMP280;30771;47.988;-4.186;2022-09-23T15:03:59;100466.47;;;17.92
45034;BMP280;30771;47.988;-4.186;2022-09-23T15:06:35;100464.88;;;17.91
45034;BMP280;30771;47.988;-4.186;2022-09-23T15:09:04;100458.16;;;17.84
45034;BMP280;30771;47.988;-4.186;2022-09-23T15:11:30;100462.72;;;17.88
45034;BMP280;30771;47.988;-4.186;2022-09-23T15:13:55;100458.47;;;17.92
45034;BMP280;30771;47.988;-4.186;2022-09-23T15:16:25;100455.38;;;18.00
45034;BMP280;30771;47.988;-4.186;2022-09-23T15:18:56;100443.72;;;18.06
45034;BMP280;30771;47.988;-4.186;2022-09-23T15:21:23;100461.94;;;18.19
45034;BMP280;30771;47.988;-4.186;2022-09-23T15:23:50;100460.28;;;18.08
45034;BMP280;30771;47.988;-4.186;2022-09-23T15:26:19;100460.69;;;18.00
45034;BMP280;30771;47.988;-4.186;2022-09-23T15:28:44;100457.19;;;17.95
45034;BMP280;30771;47.988;-4.186;2022-09-23T15:31:15;100460.16;;;17.98
45034;BMP280;30771;47.988;-4.186;2022-09-23T15:33:44;100453.81;;;17.99
45034;BMP280;30771;47.988;-4.186;2022-09-23T15:36:19;100461.03;;;18.04
45034;BMP280;30771;47.988;-4.186;2022-09-23T15:38:46;100459.16;;;18.04
45034;BMP280;30771;47.988;-4.186;2022-09-23T15:41:12;100451.41;;;18.03
45034;BMP280;30771;47.988;-4.186;2022-09-23T15:43:38;100451.47;;;18.08
45034;BMP280;30771;47.988;-4.186;2022-09-23T15:46:26;100445.91;;;18.14
45034;BMP280;30771;47.988;-4.186;2022-09-23T15:49:07;100446.72;;;18.15
45034;BMP280;30771;47.988;-4.186;2022-09-23T15:51:33;100448.91;;;18.18
45034;BMP280;30771;47.988;-4.186;2022-09-23T15:53:59;100456.34;;;18.16
45034;BMP280;30771;47.988;-4.186;2022-09-23T15:56:24;100450.50;;;18.19
45034;BMP280;30771;47.988;-4.186;2022-09-23T15:58:49;100448.84;;;18.13
45034;BMP280;30771;47.988;-4.186;2022-09-23T16:01:29;100456.78;;;18.08
45034;BMP280;30771;47.988;-4.186;2022-09-23T16:03:55;100457.81;;;18.07
45034;BMP280;30771;47.988;-4.186;2022-09-23T16:06:21;100458.41;;;18.09
45034;BMP280;30771;47.988;-4.186;2022-09-23T16:08:46;100462.13;;;18.08
45034;BMP280;30771;47.988;-4.186;2022-09-23T16:11:21;100447.97;;;18.07
45034;BMP280;30771;47.988;-4.186;2022-09-23T16:13:47;100455.00;;;18.13
45034;BMP280;30771;47.988;-4.186;2022-09-23T16:16:12;100464.22;;;18.33
45034;BMP280;30771;47.988;-4.186;2022-09-23T16:18:38;100450.13;;;18.37
45034;BMP280;30771;47.988;-4.186;2022-09-23T16:21:03;100464.78;;;18.40
45034;BMP280;30771;47.988;-4.186;2022-09-23T16:23:30;100475.13;;;18.31
45034;BMP280;30771;47.988;-4.186;2022-09-23T16:25:57;100482.50;;;18.24
45034;BMP280;30771;47.988;-4.186;2022-09-23T16:28:22;100478.28;;;18.23
45034;BMP280;30771;47.988;-4.186;2022-09-23T16:30:47;100472.44;;;18.26
45034;BMP280;30771;47.988;-4.186;2022-09-23T16:33:12;100485.66;;;18.16
45034;BMP280;30771;47.988;-4.186;2022-09-23T16:35:38;100475.56;;;18.18
45034;BMP280;30771;47.988;-4.186;2022-09-23T16:38:03;100471.50;;;18.15
45034;BMP280;30771;47.988;-4.186;2022-09-23T16:40:28;100475.13;;;18.04
45034;BMP280;30771;47.988;-4.186;2022-09-23T16:42:53;100468.16;;;17.98
45034;BMP280;30771;47.988;-4.186;2022-09-23T16:45:20;100462.38;;;17.80
45034;BMP280;30771;47.988;-4.186;2022-09-23T16:47:47;100466.34;;;17.77
45034;BMP280;30771;47.988;-4.186;2022-09-23T16:50:14;100475.88;;;17.73
45034;BMP280;30771;47.988;-4.186;2022-09-23T16:52:40;100478.41;;;17.63
45034;BMP280;30771;47.988;-4.186;2022-09-23T16:55:07;100488.03;;;17.64
45034;BMP280;30771;47.988;-4.186;2022-09-23T16:57:32;100490.44;;;17.66
45034;BMP280;30771;47.988;-4.186;2022-09-23T16:59:57;100491.25;;;17.66
45034;BMP280;30771;47.988;-4.186;2022-09-23T17:02:23;100482.97;;;17.68
45034;BMP280;30771;47.988;-4.186;2022-09-23T17:04:48;100498.97;;;17.68
45034;BMP280;30771;47.988;-4.186;2022-09-23T17:07:13;100485.00;;;17.56
45034;BMP280;30771;47.988;-4.186;2022-09-23T17:09:39;100500.34;;;17.49
45034;BMP280;30771;47.988;-4.186;2022-09-23T17:12:20;100489.13;;;17.25
45034;BMP280;30771;47.988;-4.186;2022-09-23T17:14:48;100496.13;;;17.31
45034;BMP280;30771;47.988;-4.186;2022-09-23T17:17:14;100499.03;;;17.30
45034;BMP280;30771;47.988;-4.186;2022-09-23T17:19:39;100489.34;;;17.24
45034;BMP280;30771;47.988;-4.186;2022-09-23T17:22:04;100500.59;;;17.26
45034;BMP280;30771;47.988;-4.186;2022-09-23T17:24:30;100485.34;;;17.21
45034;BMP280;30771;47.988;-4.186;2022-09-23T17:26:55;100513.50;;;17.17
45034;BMP280;30771;47.988;-4.186;2022-09-23T17:29:20;100506.09;;;17.03
45034;BMP280;30771;47.988;-4.186;2022-09-23T17:31:45;100512.31;;;16.92
45034;BMP280;30771;47.988;-4.186;2022-09-23T17:34:11;100525.03;;;16.89
45034;BMP280;30771;47.988;-4.186;2022-09-23T17:36:36;100525.47;;;16.81
45034;BMP280;30771;47.988;-4.186;2022-09-23T17:39:01;100520.88;;;16.77
45034;BMP280;30771;47.988;-4.186;2022-09-23T17:41:26;100530.63;;;16.71
45034;BMP280;30771;47.988;-4.186;2022-09-23T17:43:53;100529.97;;;16.64
45034;BMP280;30771;47.988;-4.186;2022-09-23T17:46:19;100530.19;;;16.46
45034;BMP280;30771;47.988;-4.186;2022-09-23T17:48:44;100517.75;;;16.35
45034;BMP280;30771;47.988;-4.186;2022-09-23T17:51:12;100527.88;;;16.38
45034;BMP280;30771;47.988;-4.186;2022-09-23T17:53:39;100532.56;;;16.31
45034;BMP280;30771;47.988;-4.186;2022-09-23T17:58:38;100513.34;;;16.13
45034;BMP280;30771;47.988;-4.186;2022-09-23T18:01:07;100505.03;;;16.09
45034;BMP280;30771;47.988;-4.186;2022-09-23T18:03:32;100505.50;;;16.06
45034;BMP280;30771;47.988;-4.186;2022-09-23T18:06:06;100516.94;;;16.07
45034;BMP280;30771;47.988;-4.186;2022-09-23T18:08:31;100513.63;;;16.00
45034;BMP280;30771;47.988;-4.186;2022-09-23T18:10:57;100508.94;;;15.90
45034;BMP280;30771;47.988;-4.186;2022-09-23T18:13:22;100512.28;;;15.86
45034;BMP280;30771;47.988;-4.186;2022-09-23T18:15:47;100515.09;;;15.79
45034;BMP280;30771;47.988;-4.186;2022-09-23T18:18:12;100515.63;;;15.70
45034;BMP280;30771;47.988;-4.186;2022-09-23T18:20:38;100516.34;;;15.65
45034;BMP280;30771;47.988;-4.186;2022-09-23T18:23:03;100516.03;;;15.62
45034;BMP280;30771;47.988;-4.186;2022-09-23T18:25:31;100513.72;;;15.53
45034;BMP280;30771;47.988;-4.186;2022-09-23T18:27:57;100522.97;;;15.51
45034;BMP280;30771;47.988;-4.186;2022-09-23T18:30:22;100515.34;;;15.43
45034;BMP280;30771;47.988;-4.186;2022-09-23T18:32:47;100518.50;;;15.40
45034;BMP280;30771;47.988;-4.186;2022-09-23T18:35:13;100515.22;;;15.38
45034;BMP280;30771;47.988;-4.186;2022-09-23T18:37:38;100517.56;;;15.34
45034;BMP280;30771;47.988;-4.186;2022-09-23T18:40:04;100512.59;;;15.26
45034;BMP280;30771;47.988;-4.186;2022-09-23T18:42:29;100515.00;;;15.28
45034;BMP280;30771;47.988;-4.186;2022-09-23T18:44:54;100521.84;;;15.24
45034;BMP280;30771;47.988;-4.186;2022-09-23T18:47:19;100518.25;;;15.18
45034;BMP280;30771;47.988;-4.186;2022-09-23T18:49:45;100528.28;;;15.16
45034;BMP280;30771;47.988;-4.186;2022-09-23T18:52:10;100517.34;;;15.13
45034;BMP280;30771;47.988;-4.186;2022-09-23T18:54:35;100509.81;;;15.10
45034;BMP280;30771;47.988;-4.186;2022-09-23T18:57:00;100519.06;;;15.07
45034;BMP280;30771;47.988;-4.186;2022-09-23T18:59:26;100515.59;;;15.07
45034;BMP280;30771;47.988;-4.186;2022-09-23T19:01:52;100522.97;;;15.05
45034;BMP280;30771;47.988;-4.186;2022-09-23T19:04:19;100514.06;;;14.99
45034;BMP280;30771;47.988;-4.186;2022-09-23T19:06:44;100517.78;;;14.98
45034;BMP280;30771;47.988;-4.186;2022-09-23T19:09:10;100523.53;;;14.95
45034;BMP280;30771;47.988;-4.186;2022-09-23T19:11:36;100532.19;;;14.91
45034;BMP280;30771;47.988;-4.186;2022-09-23T19:14:04;100530.19;;;14.86
45034;BMP280;30771;47.988;-4.186;2022-09-23T19:16:30;100537.34;;;14.86
45034;BMP280;30771;47.988;-4.186;2022-09-23T19:18:57;100539.63;;;14.82
45034;BMP280;30771;47.988;-4.186;2022-09-23T19:21:22;100534.81;;;14.79
45034;BMP280;30771;47.988;-4.186;2022-09-23T19:23:50;100542.41;;;14.76
45034;BMP280;30771;47.988;-4.186;2022-09-23T19:26:18;100546.31;;;14.73
45034;BMP280;30771;47.988;-4.186;2022-09-23T19:28:49;100553.88;;;14.70
45034;BMP280;30771;47.988;-4.186;2022-09-23T19:31:17;100549.84;;;14.67
45034;BMP280;30771;47.988;-4.186;2022-09-23T19:33:43;100544.19;;;14.64
45034;BMP280;30771;47.988;-4.186;2022-09-23T19:36:09;100542.00;;;14.61
45034;BMP280;30771;47.988;-4.186;2022-09-23T19:38:35;100536.72;;;14.61
45034;BMP280;30771;47.988;-4.186;2022-09-23T19:41:02;100548.31;;;14.60
45034;BMP280;30771;47.988;-4.186;2022-09-23T19:43:28;100537.59;;;14.55
45034;BMP280;30771;47.988;-4.186;2022-09-23T19:45:54;100537.00;;;14.53
45034;BMP280;30771;47.988;-4.186;2022-09-23T19:48:19;100545.78;;;14.53
45034;BMP280;30771;47.988;-4.186;2022-09-23T19:50:47;100544.97;;;14.53
45034;BMP280;30771;47.988;-4.186;2022-09-23T19:53:13;100548.66;;;14.52
45034;BMP280;30771;47.988;-4.186;2022-09-23T19:55:39;100552.56;;;14.49
45034;BMP280;30771;47.988;-4.186;2022-09-23T19:58:04;100553.94;;;14.52
45034;BMP280;30771;47.988;-4.186;2022-09-23T20:00:31;100547.84;;;14.51
45034;BMP280;30771;47.988;-4.186;2022-09-23T20:02:56;100546.00;;;14.52
45034;BMP280;30771;47.988;-4.186;2022-09-23T20:05:22;100544.63;;;14.49
45034;BMP280;30771;47.988;-4.186;2022-09-23T20:07:48;100545.88;;;14.47
45034;BMP280;30771;47.988;-4.186;2022-09-23T20:10:13;100564.78;;;14.50
45034;BMP280;30771;47.988;-4.186;2022-09-23T20:12:39;100557.06;;;14.49
45034;BMP280;30771;47.988;-4.186;2022-09-23T20:15:04;100565.00;;;14.49
45034;BMP280;30771;47.988;-4.186;2022-09-23T20:17:30;100565.81;;;14.49
45034;BMP280;30771;47.988;-4.186;2022-09-23T20:19:56;100567.44;;;14.50
45034;BMP280;30771;47.988;-4.186;2022-09-23T20:22:22;100558.88;;;14.48
45034;BMP280;30771;47.988;-4.186;2022-09-23T20:24:47;100563.19;;;14.49
45034;BMP280;30771;47.988;-4.186;2022-09-23T20:27:12;100555.22;;;14.49
45034;BMP280;30771;47.988;-4.186;2022-09-23T20:29:37;100558.66;;;14.50
45034;BMP280;30771;47.988;-4.186;2022-09-23T20:32:03;100552.78;;;14.48
45034;BMP280;30771;47.988;-4.186;2022-09-23T20:34:28;100558.31;;;14.46
45034;BMP280;30771;47.988;-4.186;2022-09-23T20:36:54;100553.88;;;14.40
45034;BMP280;30771;47.988;-4.186;2022-09-23T20:39:19;100551.63;;;14.44
45034;BMP280;30771;47.988;-4.186;2022-09-23T20:41:44;100551.84;;;14.42
45034;BMP280;30771;47.988;-4.186;2022-09-23T20:44:11;100550.69;;;14.38
45034;BMP280;30771;47.988;-4.186;2022-09-23T20:46:36;100549.84;;;14.37
45034;BMP280;30771;47.988;-4.186;2022-09-23T20:49:02;100557.81;;;14.37
45034;BMP280;30771;47.988;-4.186;2022-09-23T20:51:28;100563.78;;;14.33
45034;BMP280;30771;47.988;-4.186;2022-09-23T20:53:53;100558.56;;;14.26
45034;BMP280;30771;47.988;-4.186;2022-09-23T20:56:19;100565.72;;;14.26
45034;BMP280;30771;47.988;-4.186;2022-09-23T20:58:45;100571.22;;;14.24
45034;BMP280;30771;47.988;-4.186;2022-09-23T21:01:10;100582.41;;;14.26
45034;BMP280;30771;47.988;-4.186;2022-09-23T21:03:41;100584.94;;;14.21
45034;BMP280;30771;47.988;-4.186;2022-09-23T21:06:08;100583.50;;;14.19
45034;BMP280;30771;47.988;-4.186;2022-09-23T21:08:35;100585.78;;;14.15
45034;BMP280;30771;47.988;-4.186;2022-09-23T21:11:03;100586.25;;;14.12
45034;BMP280;30771;47.988;-4.186;2022-09-23T21:13:30;100591.53;;;14.12
45034;BMP280;30771;47.988;-4.186;2022-09-23T21:16:00;100584.47;;;14.06
45034;BMP280;30771;47.988;-4.186;2022-09-23T21:18:26;100592.63;;;14.05